createdAt,value
2024-03-17T00:02:48.336Z,73.54
2024-03-17T00:07:51.156Z,73.32
2024-03-17T00:12:54.020Z,73.07
2024-03-17T00:17:56.915Z,72.56
2024-03-17T00:22:59.805Z,72.05
2024-03-17T00:28:04.195Z,72.07
2024-03-17T00:33:07.112Z,72.42
2024-03-17T00:38:13.598Z,72.59
2024-03-17T00:43:16.772Z,71.44
2024-03-17T00:48:20.050Z,70.14
2024-03-17T00:53:22.907Z,69.80
2024-03-17T00:58:25.787Z,70.07
2024-03-17T01:03:29.186Z,71.15
2024-03-17T01:08:32.905Z,71.69
2024-03-17T01:13:42.661Z,71.85
2024-03-17T01:18:46.853Z,72.21
2024-03-17T01:23:50.645Z,71.43
2024-03-17T01:28:53.433Z,70.02
2024-03-17T01:33:56.934Z,70.12
2024-03-17T01:39:01.215Z,70.50
2024-03-17T01:44:05.008Z,70.43
2024-03-17T01:49:09.187Z,70.80
2024-03-17T01:54:12.982Z,71.43
2024-03-17T01:59:15.966Z,71.11
2024-03-17T02:04:19.198Z,70.46
2024-03-17T02:09:23.165Z,69.71
2024-03-17T02:14:26.137Z,67.99
2024-03-17T02:19:28.975Z,67.39
2024-03-17T02:24:31.830Z,67.50
2024-03-17T02:29:34.662Z,67.92
2024-03-17T02:34:38.753Z,67.57
2024-03-17T02:39:42.600Z,66.77
2024-03-17T02:44:46.743Z,66.65
2024-03-17T02:49:51.727Z,65.38
2024-03-17T02:54:59.554Z,64.33
2024-03-17T03:00:05.619Z,63.91
2024-03-17T03:05:08.692Z,64.35
2024-03-17T03:10:11.621Z,64.59
2024-03-17T03:15:14.497Z,64.63
2024-03-17T03:20:17.412Z,64.65
2024-03-17T03:25:20.398Z,64.77
2024-03-17T03:30:23.311Z,64.97
2024-03-17T03:35:29.525Z,64.93
2024-03-17T03:40:33.929Z,64.95
2024-03-17T03:45:38.351Z,64.89
2024-03-17T03:50:41.781Z,64.88
2024-03-17T03:55:44.630Z,64.95
2024-03-17T04:00:47.448Z,65.15
2024-03-17T04:05:50.356Z,65.59
2024-03-17T04:10:53.220Z,65.91
2024-03-17T04:16:00.050Z,66.09
2024-03-17T04:21:13.156Z,66.05
2024-03-17T04:26:16.049Z,66.12
2024-03-17T04:31:19.007Z,66.05
2024-03-17T04:36:22.006Z,66.02
2024-03-17T04:41:25.092Z,65.75
2024-03-17T04:46:28.088Z,64.92
2024-03-17T04:51:31.089Z,64.47
2024-03-17T04:56:34.170Z,63.68
2024-03-17T05:01:37.421Z,63.01
2024-03-17T05:06:42.876Z,63.29
2024-03-17T05:11:46.108Z,63.13
2024-03-17T05:16:52.328Z,62.81
2024-03-17T05:21:55.174Z,62.77
2024-03-17T05:26:57.976Z,62.86
2024-03-17T05:32:00.867Z,62.76
2024-03-17T05:37:06.249Z,62.43
2024-03-17T05:42:10.338Z,61.85
2024-03-17T05:47:13.975Z,60.82
2024-03-17T05:52:16.862Z,59.92
2024-03-17T05:57:19.778Z,59.72
2024-03-17T06:02:22.723Z,59.22
2024-03-17T06:07:25.514Z,58.86
2024-03-17T06:12:28.415Z,59.01
2024-03-17T06:17:31.618Z,57.67
2024-03-17T06:22:35.772Z,57.24
2024-03-17T06:27:38.632Z,56.57
2024-03-17T06:32:42.588Z,56.93
2024-03-17T06:37:46.425Z,56.15
2024-03-17T06:42:49.291Z,55.77
2024-03-17T06:47:52.565Z,55.51
2024-03-17T06:52:55.489Z,54.83
2024-03-17T06:57:58.325Z,54.74
2024-03-17T07:03:01.428Z,55.11
2024-03-17T07:08:05.426Z,55.15
2024-03-17T07:13:08.418Z,55.22
2024-03-17T07:18:11.320Z,54.59
2024-03-17T07:23:14.441Z,54.27
2024-03-17T07:28:17.356Z,54.02
2024-03-17T07:33:23.223Z,54.60
2024-03-17T07:38:27.217Z,54.78
2024-03-17T07:43:32.637Z,54.64
2024-03-17T07:48:37.389Z,53.78
2024-03-17T07:53:42.531Z,52.08
2024-03-17T07:58:46.255Z,51.47
2024-03-17T08:03:56.683Z,51.18
2024-03-17T08:08:59.538Z,50.25
2024-03-17T08:14:03.000Z,49.59
2024-03-17T08:19:05.992Z,48.41
2024-03-17T08:24:09.312Z,47.28
2024-03-17T08:29:12.833Z,47.17
2024-03-17T08:34:15.716Z,46.97
2024-03-17T08:39:18.700Z,47.42
2024-03-17T08:44:21.662Z,48.45
2024-03-17T08:49:24.687Z,48.26
2024-03-17T08:54:27.523Z,48.07
2024-03-17T08:59:30.364Z,47.98
2024-03-17T09:04:33.439Z,47.22
2024-03-17T09:09:36.262Z,46.21
2024-03-17T09:14:39.258Z,46.22
2024-03-17T09:19:43.663Z,45.97
2024-03-17T09:24:47.332Z,45.57
2024-03-17T09:29:50.153Z,45.48
2024-03-17T09:34:53.105Z,45.10
2024-03-17T09:39:58.229Z,45.17
2024-03-17T09:45:02.118Z,44.68
2024-03-17T09:50:06.562Z,44.30
2024-03-17T09:55:15.786Z,43.89
2024-03-17T10:00:19.315Z,43.90
2024-03-17T10:05:26.820Z,43.50
2024-03-17T10:10:29.695Z,44.04
2024-03-17T10:15:33.123Z,43.69
2024-03-17T10:20:36.018Z,44.41
2024-03-17T10:25:41.776Z,44.15
2024-03-17T10:30:58.188Z,43.50
2024-03-17T10:36:02.985Z,41.98
2024-03-17T10:41:07.106Z,41.28
2024-03-17T10:46:15.513Z,40.34
2024-03-17T10:51:19.546Z,40.53
2024-03-17T10:56:25.297Z,40.34
2024-03-17T11:01:28.021Z,39.72
2024-03-17T11:06:31.008Z,39.03
2024-03-17T11:11:39.000Z,39.56
2024-03-17T11:16:41.842Z,39.54
2024-03-17T11:21:45.148Z,38.45
2024-03-17T11:26:48.013Z,36.59
2024-03-17T11:31:56.233Z,35.93
2024-03-17T11:37:00.918Z,36.48
2024-03-17T11:42:11.700Z,36.40
2024-03-17T11:47:14.400Z,36.51
2024-03-17T11:52:17.791Z,36.61
2024-03-17T11:57:23.919Z,36.41
2024-03-17T12:02:28.966Z,35.51
2024-03-17T12:07:45.508Z,34.57
2024-03-17T12:12:50.946Z,33.90
2024-03-17T12:17:54.590Z,34.38
2024-03-17T12:22:58.838Z,33.52
2024-03-17T12:28:02.065Z,34.08
2024-03-17T12:33:05.877Z,35.38
2024-03-17T12:38:22.871Z,33.77
2024-03-17T12:43:27.570Z,33.81
2024-03-17T12:48:30.742Z,34.30
2024-03-17T12:53:34.078Z,33.31
2024-03-17T12:58:55.095Z,34.77
2024-03-17T13:04:08.116Z,34.39
2024-03-17T13:09:11.433Z,34.65
2024-03-17T13:14:18.412Z,34.53
2024-03-17T13:19:23.516Z,33.28
2024-03-17T13:24:26.571Z,33.55
2024-03-17T13:29:29.322Z,34.24
2024-03-17T13:34:32.461Z,34.12
2024-03-17T13:39:35.610Z,34.20
2024-03-17T13:44:38.441Z,33.92
2024-03-17T13:49:41.588Z,32.13
2024-03-17T13:54:44.653Z,31.72
2024-03-17T13:59:49.605Z,31.48
2024-03-17T14:04:52.393Z,32.57
2024-03-17T14:09:55.274Z,33.44
2024-03-17T14:14:58.358Z,33.31
2024-03-17T14:20:01.238Z,32.84
2024-03-17T14:25:08.467Z,33.43
2024-03-17T14:30:14.513Z,33.14
2024-03-17T14:35:19.138Z,33.86
2024-03-17T14:40:24.980Z,34.79
2024-03-17T14:45:28.136Z,35.50
2024-03-17T14:50:31.055Z,34.54
2024-03-17T14:55:34.586Z,34.86
2024-03-17T15:00:37.521Z,33.90
2024-03-17T15:05:40.768Z,34.61
2024-03-17T15:10:43.640Z,34.78
2024-03-17T15:15:48.163Z,35.13
2024-03-17T15:20:54.648Z,35.92
2024-03-17T15:26:10.858Z,36.68
2024-03-17T15:31:14.235Z,37.20
2024-03-17T15:36:17.337Z,38.55
2024-03-17T15:41:20.109Z,40.08
2024-03-17T15:46:23.455Z,41.07
2024-03-17T15:51:28.679Z,41.52
2024-03-17T15:56:34.710Z,42.30
2024-03-17T16:01:37.537Z,42.48
2024-03-17T16:06:40.917Z,42.48
2024-03-17T16:11:43.810Z,42.99
2024-03-17T16:16:46.864Z,43.73
2024-03-17T16:21:49.990Z,44.09
2024-03-17T16:26:55.464Z,43.30
2024-03-17T16:31:59.991Z,42.71
2024-03-17T16:37:03.085Z,42.77
2024-03-17T16:42:06.500Z,42.84
2024-03-17T16:47:29.867Z,43.13
2024-03-17T16:52:33.954Z,43.27
2024-03-17T16:57:37.702Z,43.29
2024-03-17T17:02:45.351Z,43.22
2024-03-17T17:07:48.346Z,43.24
2024-03-17T17:12:51.430Z,43.25
2024-03-17T17:17:58.187Z,43.60
2024-03-17T17:23:01.521Z,43.50
2024-03-17T17:28:05.385Z,42.73
2024-03-17T17:33:08.777Z,42.52
2024-03-17T17:38:11.807Z,42.31
2024-03-17T17:43:14.740Z,41.91
2024-03-17T17:48:18.537Z,41.77
2024-03-17T17:53:21.690Z,41.88
2024-03-17T17:58:25.726Z,42.02
2024-03-17T18:03:29.108Z,41.96
2024-03-17T18:08:34.001Z,41.76
2024-03-17T18:13:37.004Z,42.05
2024-03-17T18:18:42.979Z,42.01
2024-03-17T18:23:45.970Z,42.08
2024-03-17T18:28:51.715Z,42.39
2024-03-17T18:33:57.724Z,42.39
2024-03-17T18:39:00.727Z,42.45
2024-03-17T18:44:05.149Z,42.96
2024-03-17T18:49:11.698Z,42.93
2024-03-17T18:54:14.563Z,42.67
2024-03-17T18:59:20.326Z,43.08
2024-03-17T19:04:23.424Z,43.21
2024-03-17T19:09:28.385Z,42.85
2024-03-17T19:14:31.374Z,42.99
2024-03-17T19:19:34.375Z,43.34
2024-03-17T19:24:37.341Z,43.58
2024-03-17T19:29:41.410Z,43.81
2024-03-17T19:34:44.960Z,43.97
2024-03-17T19:39:48.026Z,44.05
2024-03-17T19:44:51.105Z,44.28
2024-03-17T19:49:54.011Z,44.68
2024-03-17T19:54:57.498Z,44.78
2024-03-17T20:00:01.440Z,45.94
2024-03-17T20:05:14.713Z,45.52
2024-03-17T20:10:18.742Z,45.75
2024-03-17T20:15:24.376Z,47.64
2024-03-17T20:20:28.575Z,49.63
2024-03-17T20:25:33.427Z,49.96
2024-03-17T20:30:36.567Z,50.52
2024-03-17T20:35:41.668Z,50.76
2024-03-17T20:40:45.573Z,51.29
2024-03-17T20:45:48.654Z,51.76
2024-03-17T20:50:51.947Z,52.13
2024-03-17T20:55:54.961Z,51.40
2024-03-17T21:00:59.188Z,51.01
2024-03-17T21:06:03.807Z,51.36
2024-03-17T21:11:07.813Z,51.26
2024-03-17T21:16:11.230Z,50.62
2024-03-17T21:21:14.129Z,49.81
2024-03-17T21:26:17.224Z,49.81
2024-03-17T21:31:20.142Z,50.37
2024-03-17T21:36:24.207Z,50.44
2024-03-17T21:41:27.275Z,50.08
2024-03-17T21:46:30.232Z,49.99
2024-03-17T21:51:33.095Z,50.37
2024-03-17T21:56:35.960Z,50.72
2024-03-17T22:01:38.902Z,50.98
2024-03-17T22:06:42.218Z,51.38
2024-03-17T22:11:45.673Z,51.19
2024-03-17T22:16:49.038Z,51.27
2024-03-17T22:21:51.746Z,51.09
2024-03-17T22:26:54.698Z,50.64
2024-03-17T22:31:57.448Z,50.89
2024-03-17T22:37:00.550Z,50.48
2024-03-17T22:42:05.764Z,50.53
2024-03-17T22:47:09.111Z,49.48
2024-03-17T22:52:11.879Z,48.93
2024-03-17T22:57:15.193Z,48.60
2024-03-17T23:02:18.069Z,48.39
2024-03-17T23:07:21.378Z,47.93
2024-03-17T23:12:24.520Z,47.47
2024-03-17T23:17:27.293Z,47.78
2024-03-17T23:22:30.203Z,47.99
2024-03-17T23:27:33.038Z,47.72
2024-03-17T23:32:39.856Z,47.63
2024-03-17T23:37:42.773Z,47.30
2024-03-17T23:42:45.758Z,46.52
2024-03-17T23:47:49.025Z,45.54
2024-03-17T23:52:52.132Z,45.46
2024-03-17T23:57:54.997Z,45.36
